Time;durP1;ratioP1;P1;durP2;ratioP2;P2;SDS_P1;SDS_P2;PMS_P1;PMS_P2;Temp;Humidity;BMP_temperature;BMP_pressure;BME280_temperature;BME280_humidity;BME280_pressure;Samples;Min_cycle;Max_cycle;Signal;HPM_P1;HPM_P2
2022/07/20 00:01:36;;;;;;;6.78;3.63;;;15.50;99.90;;;;;;5054183;28;20033;-51
2022/07/20 00:04:03;;;;;;;9.65;3.92;;;15.40;99.90;;;;;;5054146;28;20040;-51
2022/07/20 00:06:29;;;;;;;6.10;3.33;;;15.40;99.90;;;;;;5054118;28;20479;-50
2022/07/20 00:11:39;;;;;;;9.60;4.22;;;15.30;99.90;;;;;;5054287;28;20021;-50
2022/07/20 00:14:05;;;;;;;8.15;4.35;;;15.30;99.90;;;;;;5054061;28;20033;-51
2022/07/20 00:16:33;;;;;;;9.98;5.43;;;15.30;99.90;;;;;;5054085;28;20451;-51
2022/07/20 00:18:59;;;;;;;9.45;5.22;;;15.40;99.90;;;;;;5054034;28;20033;-50
2022/07/20 00:21:25;;;;;;;8.45;4.82;;;15.40;99.90;;;;;;5054189;28;20055;-50
2022/07/20 00:23:51;;;;;;;8.77;4.15;;;15.40;99.90;;;;;;5053939;28;20433;-51
2022/07/20 00:26:17;;;;;;;7.38;4.22;;;15.30;99.90;;;;;;5039466;28;20028;-50
2022/07/20 00:28:43;;;;;;;9.02;4.53;;;15.20;99.90;;;;;;5040254;28;20054;-50
2022/07/20 00:31:09;;;;;;;8.65;4.40;;;15.20;99.90;;;;;;5057960;28;20036;-50
2022/07/20 00:33:35;;;;;;;8.48;4.20;;;15.10;99.90;;;;;;5058020;28;20025;-51
2022/07/20 00:36:02;;;;;;;5.75;4.38;;;15.10;99.90;;;;;;5058004;28;20104;-50
2022/07/20 00:38:28;;;;;;;6.65;4.00;;;15.00;99.90;;;;;;5057872;28;20033;-50
2022/07/20 00:40:54;;;;;;;6.38;3.20;;;15.00;99.90;;;;;;5057858;28;20025;-51
2022/07/20 00:43:20;;;;;;;9.50;4.70;;;15.00;99.90;;;;;;5057763;28;20079;-50
2022/07/20 00:45:46;;;;;;;8.00;4.47;;;15.00;99.90;;;;;;5057827;28;20017;-50
2022/07/20 00:48:12;;;;;;;4.28;3.33;;;15.00;99.90;;;;;;5057864;28;20107;-50
2022/07/20 00:50:38;;;;;;;5.53;3.90;;;15.00;99.90;;;;;;5057747;28;20025;-51
2022/07/20 00:53:05;;;;;;;5.03;3.30;;;14.90;99.90;;;;;;5057689;28;20032;-50
2022/07/20 00:55:31;;;;;;;10.32;3.63;;;14.90;99.90;;;;;;5057679;28;20083;-50
2022/07/20 00:57:57;;;;;;;6.28;3.53;;;14.90;99.90;;;;;;5057670;28;20037;-50
2022/07/20 01:00:23;;;;;;;7.03;3.38;;;14.90;99.90;;;;;;5057567;28;20031;-50
2022/07/20 01:02:49;;;;;;;6.85;3.33;;;14.70;99.90;;;;;;5057462;28;20060;-51
2022/07/20 01:05:15;;;;;;;6.88;3.30;;;14.70;99.90;;;;;;5057270;28;20068;-50
2022/07/20 01:07:44;;;;;;;6.40;3.25;;;14.70;99.90;;;;;;5057462;28;20223;-51
2022/07/20 01:10:12;;;;;;;4.20;3.20;;;14.70;99.90;;;;;;5057384;28;20029;-51
2022/07/20 01:12:39;;;;;;;7.15;3.60;;;14.70;99.90;;;;;;5057364;28;20421;-50
2022/07/20 01:15:07;;;;;;;9.32;3.47;;;14.60;99.90;;;;;;5057423;28;20033;-51
2022/07/20 01:17:33;;;;;;;8.27;3.40;;;14.70;99.90;;;;;;5057184;28;20032;-51
2022/07/20 01:19:59;;;;;;;8.40;3.45;;;14.70;99.90;;;;;;5057261;28;20096;-50
2022/07/20 01:22:25;;;;;;;7.68;3.70;;;14.70;99.90;;;;;;5057056;28;20033;-50
2022/07/20 01:24:51;;;;;;;9.40;2.97;;;14.70;99.90;;;;;;5057220;28;20020;-50
2022/07/20 01:27:17;;;;;;;7.10;3.30;;;14.70;99.90;;;;;;5039262;28;20028;-51
2022/07/20 01:29:43;;;;;;;6.55;3.20;;;14.70;99.90;;;;;;5057000;28;20507;-50
2022/07/20 01:32:09;;;;;;;7.15;3.40;;;14.70;99.90;;;;;;5057074;28;20033;-50
2022/07/20 01:34:35;;;;;;;13.73;4.45;;;14.60;99.90;;;;;;5056991;28;20033;-50
2022/07/20 01:37:01;;;;;;;9.25;3.85;;;14.60;99.90;;;;;;5056274;28;20112;-51
2022/07/20 01:39:27;;;;;;;11.25;4.15;;;14.60;99.90;;;;;;5056636;28;20067;-51
2022/07/20 01:41:53;;;;;;;6.80;4.50;;;14.70;99.90;;;;;;5056618;28;20025;-50
2022/07/20 01:44:22;;;;;;;8.05;4.30;;;14.60;99.90;;;;;;5056783;28;20025;-50
2022/07/20 01:46:49;;;;;;;10.88;4.22;;;14.60;99.90;;;;;;5056630;28;20036;-51
2022/07/20 01:49:19;;;;;;;7.13;3.15;;;14.60;99.90;;;;;;5056694;28;20057;-50
2022/07/20 01:51:45;;;;;;;5.72;3.95;;;14.60;99.90;;;;;;5038644;28;20053;-50
2022/07/20 01:54:11;;;;;;;10.35;3.65;;;14.60;99.90;;;;;;5056514;28;20053;-50
2022/07/20 01:56:41;;;;;;;6.25;3.60;;;14.50;99.90;;;;;;5056514;28;20075;-51
2022/07/20 01:59:08;;;;;;;5.80;3.90;;;14.40;99.90;;;;;;5056445;28;20025;-50
2022/07/20 02:01:34;;;;;;;7.30;3.83;;;14.50;99.90;;;;;;5055297;28;20116;-51
2022/07/20 02:04:00;;;;;;;6.13;3.50;;;14.30;99.90;;;;;;5056235;28;20029;-50
2022/07/20 02:06:26;;;;;;;5.18;3.22;;;14.40;99.90;;;;;;5056141;28;20095;-51
2022/07/20 02:08:52;;;;;;;6.47;3.22;;;14.40;99.90;;;;;;5056190;28;20032;-51
2022/07/20 02:11:18;;;;;;;4.50;3.33;;;14.40;99.90;;;;;;5056287;28;20065;-51
2022/07/20 02:13:44;;;;;;;9.13;3.55;;;14.30;99.90;;;;;;5056118;28;20087;-51
2022/07/20 02:16:15;;;;;;;6.50;3.15;;;14.20;99.90;;;;;;5054967;28;20028;-51
2022/07/20 02:18:49;;;;;;;4.63;3.53;;;14.00;99.90;;;;;;5056046;28;20036;-50
2022/07/20 02:21:17;;;;;;;5.88;3.30;;;14.00;99.90;;;;;;5056026;28;20045;-50
2022/07/20 02:23:44;;;;;;;4.75;3.63;;;13.90;99.90;;;;;;5054690;28;20385;-50
2022/07/20 02:26:10;;;;;;;6.47;4.07;;;13.80;99.90;;;;;;5056040;28;20047;-50
2022/07/20 02:28:36;;;;;;;6.68;3.50;;;13.70;99.90;;;;;;5055940;28;20474;-51
2022/07/20 02:31:03;;;;;;;5.50;3.90;;;13.70;99.90;;;;;;5055787;28;20020;-50
2022/07/20 02:33:29;;;;;;;7.18;3.53;;;13.70;99.90;;;;;;5055909;28;20424;-50
2022/07/20 02:35:55;;;;;;;7.03;3.63;;;13.70;99.90;;;;;;5055707;28;20041;-51
2022/07/20 02:38:21;;;;;;;7.18;3.30;;;13.60;99.90;;;;;;5055800;28;20037;-50
2022/07/20 02:40:47;;;;;;;6.32;3.70;;;13.50;99.90;;;;;;5055715;28;20036;-50
2022/07/20 02:43:13;;;;;;;5.75;3.88;;;13.60;99.90;;;;;;5055526;28;20100;-51
2022/07/20 02:45:39;;;;;;;7.25;4.25;;;13.50;99.90;;;;;;5055839;28;20370;-50
2022/07/20 02:48:05;;;;;;;5.55;3.47;;;13.50;99.90;;;;;;5054996;28;20167;-50
2022/07/20 02:50:38;;;;;;;5.35;3.92;;;13.50;99.90;;;;;;5055112;28;20028;-51
2022/07/20 02:53:09;;;;;;;4.63;3.38;;;13.40;99.90;;;;;;5055487;28;20033;-50
2022/07/20 02:55:35;;;;;;;4.82;3.45;;;13.30;99.90;;;;;;5055552;28;20033;-51
2022/07/20 02:58:01;;;;;;;5.10;3.53;;;13.30;99.90;;;;;;5037391;28;20063;-51
2022/07/20 03:00:27;;;;;;;5.72;3.58;;;13.30;99.90;;;;;;5055380;28;20111;-50
2022/07/20 03:02:53;;;;;;;5.38;3.40;;;13.30;99.90;;;;;;5055240;28;20104;-50
2022/07/20 03:05:20;;;;;;;6.43;3.65;;;13.30;99.90;;;;;;5054901;28;20044;-50
2022/07/20 03:07:46;;;;;;;4.55;3.70;;;13.40;99.90;;;;;;5055201;28;20116;-51
2022/07/20 03:10:12;;;;;;;6.72;3.40;;;13.30;99.90;;;;;;5037344;28;20048;-50
2022/07/20 03:12:38;;;;;;;12.63;3.70;;;13.30;99.90;;;;;;5055302;28;20031;-51
2022/07/20 03:15:05;;;;;;;4.45;3.40;;;13.40;99.90;;;;;;5055249;28;20453;-50
2022/07/20 03:17:31;;;;;;;7.80;3.55;;;13.40;99.90;;;;;;5055243;28;20076;-51
2022/07/20 03:19:58;;;;;;;8.48;3.30;;;13.30;99.90;;;;;;5054894;28;20502;-51
2022/07/20 03:22:24;;;;;;;8.20;3.33;;;13.40;99.90;;;;;;5054944;28;20025;-50
2022/07/20 03:24:50;;;;;;;7.50;3.17;;;13.50;99.90;;;;;;5054981;28;20543;-51
2022/07/20 03:27:16;;;;;;;7.22;3.63;;;13.50;99.90;;;;;;5054833;28;20721;-51
2022/07/20 03:29:42;;;;;;;5.95;3.55;;;13.50;99.90;;;;;;5054797;28;20033;-50
2022/07/20 03:32:08;;;;;;;4.40;2.90;;;13.60;99.90;;;;;;5054731;28;20025;-51
2022/07/20 03:34:34;;;;;;;4.55;3.30;;;13.60;99.90;;;;;;5054804;28;20028;-51
2022/07/20 03:37:00;;;;;;;5.90;3.67;;;13.50;99.90;;;;;;5054773;28;20053;-50
2022/07/20 03:39:26;;;;;;;9.48;4.30;;;13.50;99.90;;;;;;5054538;28;20051;-50
2022/07/20 03:41:52;;;;;;;10.20;4.82;;;13.50;99.90;;;;;;5054523;28;20021;-50
2022/07/20 03:44:18;;;;;;;12.20;5.07;;;13.60;99.90;;;;;;5054588;28;20056;-50
2022/07/20 03:46:44;;;;;;;18.90;4.97;;;13.60;99.90;;;;;;5054429;28;20044;-51
2022/07/20 03:49:09;;;;;;;18.80;5.95;;;13.60;99.90;;;;;;5054574;28;20032;-51
2022/07/20 03:51:38;;;;;;;11.55;5.10;;;13.60;99.90;;;;;;5054852;28;20029;-51
2022/07/20 03:54:05;;;;;;;11.25;4.93;;;13.60;99.90;;;;;;5054468;28;20112;-50
2022/07/20 03:56:31;;;;;;;14.60;5.05;;;13.60;99.90;;;;;;5054334;28;20036;-51
2022/07/20 03:58:57;;;;;;;12.73;4.72;;;13.60;99.90;;;;;;5054338;28;20382;-51
2022/07/20 04:01:23;;;;;;;11.05;5.13;;;13.60;99.90;;;;;;5054258;28;20074;-51
2022/07/20 04:03:48;;;;;;;9.85;4.80;;;13.60;99.90;;;;;;5054342;28;20032;-51
2022/07/20 04:06:14;;;;;;;14.57;4.80;;;13.70;99.90;;;;;;5054057;28;20120;-51
2022/07/20 04:08:40;;;;;;;11.98;4.45;;;13.70;99.90;;;;;;5054114;28;20104;-50
2022/07/20 04:11:06;;;;;;;10.15;4.90;;;13.60;99.90;;;;;;5054371;28;20470;-51
2022/07/20 04:13:32;;;;;;;9.95;4.53;;;13.70;99.90;;;;;;5054222;28;20056;-51
2022/07/20 04:15:58;;;;;;;7.38;3.70;;;13.70;99.90;;;;;;5054035;28;20040;-51
2022/07/20 04:18:24;;;;;;;8.00;4.07;;;13.70;99.90;;;;;;5054169;28;20044;-51
2022/07/20 04:20:50;;;;;;;9.95;4.55;;;13.80;99.90;;;;;;5054188;28;20029;-51
2022/07/20 04:23:15;;;;;;;12.57;4.47;;;13.80;99.90;;;;;;5054113;28;20031;-51
2022/07/20 04:25:41;;;;;;;8.73;4.40;;;14.00;99.90;;;;;;5054068;28;20494;-51
2022/07/20 04:28:08;;;;;;;12.43;4.25;;;14.10;99.90;;;;;;5054094;28;20096;-51
2022/07/20 04:30:35;;;;;;;11.82;5.00;;;14.20;99.90;;;;;;5053883;28;20064;-51
2022/07/20 04:33:01;;;;;;;16.23;4.70;;;14.30;99.90;;;;;;5054175;28;20035;-50
2022/07/20 04:35:27;;;;;;;12.07;4.78;;;14.40;99.90;;;;;;5054250;28;20398;-51
2022/07/20 04:37:53;;;;;;;9.00;4.65;;;14.50;99.90;;;;;;5054029;28;20037;-51
2022/07/20 04:40:19;;;;;;;7.68;3.92;;;14.60;99.90;;;;;;5053938;28;20056;-51
2022/07/20 04:42:45;;;;;;;12.90;4.68;;;14.60;99.90;;;;;;5053729;28;20499;-51
2022/07/20 04:45:11;;;;;;;13.93;5.80;;;14.80;99.90;;;;;;5053764;28;20045;-51
2022/07/20 04:47:37;;;;;;;13.75;5.32;;;14.90;99.90;;;;;;5054106;28;20029;-51
2022/07/20 04:50:03;;;;;;;14.32;5.10;;;15.00;99.90;;;;;;5053876;28;20039;-51
2022/07/20 04:52:29;;;;;;;9.73;4.88;;;15.20;99.90;;;;;;5053767;28;20039;-51
2022/07/20 04:54:55;;;;;;;13.82;5.75;;;15.30;99.90;;;;;;5053850;28;20453;-51
2022/07/20 04:57:20;;;;;;;10.45;5.30;;;15.40;99.90;;;;;;5053676;28;20072;-51
2022/07/20 04:59:46;;;;;;;14.57;5.60;;;15.50;99.90;;;;;;5053651;28;20040;-51
2022/07/20 05:02:12;;;;;;;17.50;6.15;;;15.60;99.90;;;;;;5053600;28;20055;-51
2022/07/20 05:04:38;;;;;;;11.05;5.70;;;15.60;99.90;;;;;;5053571;28;20438;-51
2022/07/20 05:07:04;;;;;;;11.60;6.38;;;15.80;99.90;;;;;;5053879;28;20597;-51
2022/07/20 05:09:30;;;;;;;14.98;5.95;;;15.90;99.90;;;;;;5053666;28;20107;-51
2022/07/20 05:11:56;;;;;;;22.95;5.72;;;16.00;99.90;;;;;;5051893;28;20108;-51
2022/07/20 05:14:22;;;;;;;16.58;5.93;;;16.10;99.90;;;;;;5048526;28;20611;-51
2022/07/20 05:16:48;;;;;;;16.60;6.63;;;16.30;99.90;;;;;;5056047;28;20025;-51
2022/07/20 05:19:14;;;;;;;20.75;7.00;;;16.50;99.90;;;;;;5049163;28;20088;-51
2022/07/20 05:21:40;;;;;;;18.38;6.63;;;16.60;99.50;;;;;;5051294;28;20128;-51
2022/07/20 05:24:06;;;;;;;12.52;6.50;;;16.70;98.60;;;;;;5057524;28;20482;-51
2022/07/20 05:26:32;;;;;;;17.63;7.18;;;16.70;96.80;;;;;;5057668;28;20020;-51
2022/07/20 05:28:58;;;;;;;13.75;6.00;;;16.90;96.60;;;;;;5056653;28;20359;-51
2022/07/20 05:31:24;;;;;;;21.60;6.78;;;17.00;95.70;;;;;;5056795;28;20020;-51
2022/07/20 05:33:50;;;;;;;18.63;6.75;;;17.10;95.90;;;;;;5056320;28;20029;-51
2022/07/20 05:36:16;;;;;;;16.60;6.10;;;17.30;95.20;;;;;;5055457;28;20482;-51
2022/07/20 05:38:42;;;;;;;15.45;6.20;;;17.40;94.30;;;;;;5056626;28;20471;-51
2022/07/20 05:41:08;;;;;;;17.30;6.40;;;17.60;94.00;;;;;;5055967;28;20040;-51
2022/07/20 05:43:34;;;;;;;22.23;7.38;;;17.70;93.60;;;;;;5055297;28;20029;-51
2022/07/20 05:46:00;;;;;;;16.10;6.55;;;17.90;93.00;;;;;;5035840;28;20040;-51
2022/07/20 05:48:26;;;;;;;21.02;7.88;;;18.00;92.30;;;;;;5036702;28;20022;-51
2022/07/20 05:50:52;;;;;;;16.27;6.78;;;18.10;91.80;;;;;;5036682;28;20025;-51
2022/07/20 05:53:18;;;;;;;14.32;6.65;;;18.30;91.00;;;;;;5036354;28;20038;-51
2022/07/20 05:55:46;;;;;;;22.00;7.53;;;18.40;91.10;;;;;;5036608;28;20042;-51
2022/07/20 05:58:12;;;;;;;20.83;7.40;;;18.40;90.30;;;;;;5048043;28;20039;-51
2022/07/20 06:00:41;;;;;;;20.30;6.43;;;18.60;88.50;;;;;;5050457;28;20033;-51
2022/07/20 06:03:08;;;;;;;24.73;7.38;;;18.70;87.90;;;;;;5040616;28;20030;-51
2022/07/20 06:05:34;;;;;;;25.50;6.40;;;18.80;86.40;;;;;;5036098;28;20069;-51
2022/07/20 06:08:01;;;;;;;25.55;7.60;;;19.00;83.60;;;;;;5036316;28;20111;-51
2022/07/20 06:10:34;;;;;;;25.40;7.97;;;19.10;82.90;;;;;;5036106;28;20523;-51
2022/07/20 06:13:01;;;;;;;20.63;6.78;;;19.20;80.90;;;;;;5043232;28;20029;-51
2022/07/20 06:15:26;;;;;;;20.92;6.65;;;19.30;79.40;;;;;;5045639;28;20110;-51
2022/07/20 06:17:54;;;;;;;20.75;6.22;;;19.50;78.90;;;;;;5043434;28;20065;-51
2022/07/20 06:20:21;;;;;;;16.60;6.05;;;19.70;79.10;;;;;;5056091;28;20090;-51
2022/07/20 06:22:47;;;;;;;11.65;5.15;;;19.80;78.80;;;;;;5055674;28;20132;-51
2022/07/20 06:25:15;;;;;;;19.77;7.10;;;19.90;75.40;;;;;;5055453;28;20087;-51
2022/07/20 06:27:44;;;;;;;17.63;5.97;;;20.10;75.00;;;;;;5050947;28;20013;-51
2022/07/20 06:30:11;;;;;;;23.10;6.82;;;20.30;74.40;;;;;;5036293;28;20467;-51
2022/07/20 06:32:39;;;;;;;26.35;6.07;;;20.40;73.60;;;;;;5046762;28;20041;-51
2022/07/20 06:35:06;;;;;;;23.60;6.15;;;20.60;72.30;;;;;;5055052;28;20429;-51
2022/07/20 06:37:32;;;;;;;16.50;5.43;;;20.80;72.50;;;;;;5054507;28;20203;-51
2022/07/20 06:39:58;;;;;;;16.55;5.40;;;21.00;71.60;;;;;;5039578;28;20201;-51
2022/07/20 06:42:24;;;;;;;22.70;5.95;;;21.20;71.00;;;;;;5045249;28;20032;-51
2022/07/20 06:44:50;;;;;;;20.30;5.90;;;21.40;70.80;;;;;;5025351;28;20056;-52
2022/07/20 06:47:16;;;;;;;15.98;6.00;;;21.60;70.40;;;;;;5047626;28;20101;-51
2022/07/20 06:49:43;;;;;;;21.42;6.85;;;21.90;71.00;;;;;;5036922;28;20037;-51
2022/07/20 06:52:09;;;;;;;11.63;5.43;;;22.10;69.60;;;;;;5049159;28;20112;-52
2022/07/20 06:54:35;;;;;;;19.98;5.30;;;22.30;67.40;;;;;;5050857;28;20025;-52
2022/07/20 06:57:01;;;;;;;15.77;5.80;;;22.50;66.00;;;;;;5054907;28;20036;-51
2022/07/20 06:59:26;;;;;;;20.27;5.10;;;22.70;65.50;;;;;;5048075;28;20063;-51
2022/07/20 07:01:53;;;;;;;21.40;5.75;;;23.00;65.50;;;;;;5054573;28;20033;-51
2022/07/20 07:04:19;;;;;;;17.98;5.22;;;23.20;63.10;;;;;;5054070;28;20415;-52
2022/07/20 07:06:45;;;;;;;16.13;5.50;;;23.50;61.40;;;;;;5054787;28;20394;-51
2022/07/20 07:09:11;;;;;;;12.25;4.60;;;23.70;60.40;;;;;;5054937;28;20040;-52
2022/07/20 07:11:38;;;;;;;28.63;5.55;;;24.10;60.10;;;;;;5055069;28;20028;-52
2022/07/20 07:14:04;;;;;;;20.17;5.68;;;24.40;58.90;;;;;;5047752;28;20056;-52
2022/07/20 07:16:31;;;;;;;14.15;4.15;;;24.50;56.50;;;;;;5044995;28;20062;-52
2022/07/20 07:18:59;;;;;;;14.82;4.82;;;24.80;54.90;;;;;;5043243;28;20041;-52
2022/07/20 07:21:25;;;;;;;33.88;6.80;;;25.20;54.60;;;;;;5042525;28;20026;-52
2022/07/20 07:23:52;;;;;;;21.38;5.13;;;25.50;54.00;;;;;;5040983;28;20101;-52
2022/07/20 07:26:19;;;;;;;15.88;4.45;;;25.80;53.10;;;;;;5042245;28;20497;-52
2022/07/20 07:28:45;;;;;;;16.00;4.55;;;26.00;51.70;;;;;;5041316;28;20030;-52
2022/07/20 07:31:12;;;;;;;20.17;6.22;;;26.30;50.60;;;;;;5042917;28;20103;-52
2022/07/20 07:33:38;;;;;;;25.98;5.88;;;26.70;51.10;;;;;;5044950;28;20048;-52
2022/07/20 07:36:05;;;;;;;26.27;6.13;;;27.00;49.60;;;;;;5049228;28;20068;-52
2022/07/20 07:38:31;;;;;;;23.80;5.53;;;27.30;49.20;;;;;;5043406;28;20387;-52
2022/07/20 07:40:57;;;;;;;18.80;5.05;;;27.60;48.60;;;;;;5048646;28;20025;-52
2022/07/20 07:43:23;;;;;;;22.15;5.38;;;27.80;47.30;;;;;;5047287;28;20025;-52
2022/07/20 07:45:49;;;;;;;18.42;5.05;;;28.10;47.20;;;;;;5054149;28;20029;-52
2022/07/20 07:48:16;;;;;;;19.05;4.80;;;28.50;48.00;;;;;;5048489;28;20055;-52
2022/07/20 07:50:43;;;;;;;11.27;4.18;;;28.70;46.40;;;;;;5043799;28;20375;-52
2022/07/20 07:53:12;;;;;;;22.60;6.22;;;29.00;46.90;;;;;;5044580;28;20053;-52
2022/07/20 07:55:40;;;;;;;20.45;5.38;;;29.10;46.30;;;;;;5053512;28;20037;-52
2022/07/20 07:58:08;;;;;;;17.45;5.85;;;29.50;45.20;;;;;;5054069;28;20079;-52
2022/07/20 08:00:36;;;;;;;20.52;5.47;;;29.60;45.90;;;;;;5047632;28;20383;-52
2022/07/20 08:03:03;;;;;;;16.05;4.88;;;29.60;45.00;;;;;;5046370;28;20037;-53
2022/07/20 08:05:29;;;;;;;12.75;5.32;;;30.10;44.60;;;;;;5047471;28;20048;-52
2022/07/20 08:07:55;;;;;;;12.95;4.80;;;30.40;44.20;;;;;;5052329;28;20044;-53
2022/07/20 08:10:21;;;;;;;17.80;6.05;;;30.80;44.20;;;;;;5053967;28;20433;-53
2022/07/20 08:12:47;;;;;;;13.88;6.15;;;31.00;43.50;;;;;;5051085;28;20116;-53
2022/07/20 08:15:14;;;;;;;10.52;4.32;;;30.90;42.00;;;;;;5052604;28;20473;-52
2022/07/20 08:17:53;;;;;;;11.88;4.10;;;31.30;41.90;;;;;;5052421;28;20099;-52
2022/07/20 08:20:23;;;;;;;18.45;4.85;;;31.20;41.00;;;;;;5049234;28;20021;-53
2022/07/20 08:22:51;;;;;;;14.88;4.65;;;31.40;41.10;;;;;;5046748;28;20059;-53
2022/07/20 08:25:18;;;;;;;14.70;5.03;;;31.70;40.70;;;;;;5049280;28;20035;-52
2022/07/20 08:27:45;;;;;;;18.02;4.18;;;31.20;39.00;;;;;;5048981;28;20099;-53
2022/07/20 08:30:15;;;;;;;11.27;4.50;;;31.30;39.90;;;;;;5033043;28;20049;-52
2022/07/20 08:32:50;;;;;;;17.05;4.93;;;31.90;38.80;;;;;;5033099;28;20030;-53
2022/07/20 08:35:21;;;;;;;9.80;4.28;;;32.40;38.80;;;;;;5044126;28;20124;-52
2022/07/20 08:37:47;;;;;;;9.48;3.70;;;32.70;38.20;;;;;;5040845;28;20060;-53
2022/07/20 08:40:14;;;;;;;31.98;4.20;;;32.90;37.10;;;;;;5047427;28;20059;-53
2022/07/20 08:42:44;;;;;;;9.43;3.05;;;33.00;36.30;;;;;;5049938;28;20025;-53
2022/07/20 08:45:10;;;;;;;8.65;3.40;;;32.10;31.70;;;;;;5048122;28;20487;-52
2022/07/20 08:47:42;;;;;;;9.35;3.25;;;32.40;32.90;;;;;;5055251;28;20070;-53
2022/07/20 08:50:09;;;;;;;6.05;3.25;;;32.30;33.00;;;;;;5037616;28;20635;-53
2022/07/20 08:52:35;;;;;;;13.60;4.72;;;32.10;31.70;;;;;;5046855;28;20052;-53
2022/07/20 08:55:03;;;;;;;5.82;2.67;;;32.70;31.20;;;;;;5049086;28;20024;-53
2022/07/20 08:57:36;;;;;;;11.88;3.38;;;32.70;29.90;;;;;;5056355;28;20048;-52
2022/07/20 09:00:13;;;;;;;11.82;4.15;;;33.50;31.20;;;;;;5047834;28;20382;-53
2022/07/20 09:03:01;;;;;;;6.50;2.70;;;33.60;31.00;;;;;;5050509;28;20124;-53
2022/07/20 09:05:35;;;;;;;4.70;2.75;;;33.90;29.10;;;;;;5046181;28;20048;-53
2022/07/20 09:08:05;;;;;;;6.07;2.30;;;33.90;28.00;;;;;;5051994;28;20049;-53
2022/07/20 09:10:38;;;;;;;9.60;3.08;;;34.20;28.80;;;;;;5048139;28;20030;-53
2022/07/20 09:13:18;;;;;;;4.30;1.83;;;34.70;28.20;;;;;;5046273;28;20075;-53
2022/07/20 09:15:53;;;;;;;4.57;1.87;;;35.10;28.20;;;;;;5043065;28;20834;-53
2022/07/20 09:18:24;;;;;;;5.13;2.30;;;34.80;26.50;;;;;;5044351;28;20134;-53
2022/07/20 09:20:51;;;;;;;3.92;1.75;;;34.30;26.80;;;;;;5052403;28;20025;-53
2022/07/20 09:23:19;;;;;;;4.95;2.28;;;34.40;26.00;;;;;;5054600;28;20033;-53
2022/07/20 09:26:06;;;;;;;5.97;2.10;;;35.20;27.10;;;;;;5043352;28;20383;-53
2022/07/20 09:28:40;;;;;;;6.05;1.70;;;35.10;25.40;;;;;;5047058;28;20017;-53
2022/07/20 09:31:12;;;;;;;7.35;2.97;;;35.70;26.80;;;;;;5048887;28;20028;-53
2022/07/20 09:33:38;;;;;;;5.90;2.38;;;35.40;24.50;;;;;;5049296;28;20025;-53
2022/07/20 09:36:06;;;;;;;7.13;2.10;;;34.40;23.90;;;;;;5045911;28;20060;-53
2022/07/20 09:38:40;;;;;;;9.70;2.20;;;33.60;25.40;;;;;;5043647;28;20078;-53
2022/07/20 09:41:25;;;;;;;11.00;2.13;;;34.40;26.20;;;;;;5044911;28;20032;-53
2022/07/20 09:43:51;;;;;;;7.15;2.33;;;34.50;24.20;;;;;;5038123;28;20554;-53
2022/07/20 09:46:23;;;;;;;10.35;3.70;;;34.40;25.30;;;;;;5046151;28;20118;-53
2022/07/20 09:48:50;;;;;;;3.75;1.80;;;35.00;24.40;;;;;;5048762;28;20535;-53
2022/07/20 09:51:24;;;;;;;8.23;2.15;;;34.90;24.20;;;;;;5043623;28;20025;-53
2022/07/20 09:53:53;;;;;;;6.88;2.38;;;35.50;25.10;;;;;;5043441;28;20036;-53
2022/07/20 09:56:20;;;;;;;27.17;4.93;;;35.10;24.10;;;;;;5045282;28;20174;-53
2022/07/20 09:58:49;;;;;;;10.52;3.25;;;34.80;24.90;;;;;;5043614;28;20087;-53
2022/07/20 10:01:24;;;;;;;4.85;2.00;;;35.40;24.70;;;;;;5044905;28;20550;-53
2022/07/20 10:03:53;;;;;;;6.55;2.50;;;34.70;23.70;;;;;;5038206;28;20486;-53
2022/07/20 10:06:21;;;;;;;4.47;2.20;;;33.80;23.40;;;;;;5047080;28;20815;-53
2022/07/20 10:08:48;;;;;;;7.70;2.88;;;34.90;24.70;;;;;;5041094;28;20043;-53
2022/07/20 10:11:16;;;;;;;9.85;3.78;;;34.70;23.90;;;;;;5047405;28;20029;-53
2022/07/20 10:13:43;;;;;;;3.65;1.77;;;34.60;24.40;;;;;;5046716;28;20024;-53
2022/07/20 10:16:39;;;;;;;7.88;2.20;;;35.20;23.70;;;;;;5048216;28;20032;-53
2022/07/20 10:19:10;;;;;;;3.70;2.08;;;34.70;23.90;;;;;;5035653;28;20030;-53
2022/07/20 10:21:49;;;;;;;7.80;2.92;;;35.10;24.20;;;;;;5046752;28;20028;-53
2022/07/20 10:24:32;;;;;;;3.92;2.63;;;35.20;24.10;;;;;;5035534;28;20033;-53
2022/07/20 10:27:06;;;;;;;6.68;2.10;;;35.50;24.10;;;;;;5043191;28;20025;-53
2022/07/20 10:29:39;;;;;;;10.90;2.28;;;35.40;23.40;;;;;;5046500;28;20018;-53
2022/07/20 10:32:20;;;;;;;2.95;2.03;;;35.40;23.20;;;;;;5040312;28;20352;-53
2022/07/20 10:34:47;;;;;;;4.47;2.10;;;35.50;23.60;;;;;;5043099;28;20079;-53
2022/07/20 10:37:38;;;;;;;10.65;2.55;;;36.20;24.50;;;;;;5041008;28;20021;-53
2022/07/20 10:40:13;;;;;;;11.07;2.40;;;36.90;22.80;;;;;;5053842;28;20042;-53
2022/07/20 10:42:46;;;;;;;9.48;3.00;;;37.10;23.00;;;;;;5044537;28;20034;-53
2022/07/20 10:45:25;;;;;;;5.43;2.40;;;36.50;23.90;;;;;;5044719;28;20418;-53
2022/07/20 10:48:11;;;;;;;3.17;1.65;;;36.20;22.50;;;;;;5054153;28;20536;-53
2022/07/20 10:50:41;;;;;;;7.50;2.47;;;35.30;22.50;;;;;;5030592;28;20041;-53
2022/07/20 10:53:10;;;;;;;3.85;1.80;;;36.20;23.10;;;;;;5047929;28;20037;-53
2022/07/20 10:55:36;;;;;;;3.35;1.75;;;36.90;24.20;;;;;;5036943;28;20080;-53
2022/07/20 10:58:11;;;;;;;9.25;2.85;;;37.50;23.20;;;;;;5035820;28;20033;-53
2022/07/20 11:01:01;;;;;;;7.45;2.20;;;37.70;22.50;;;;;;5050724;28;20580;-53
2022/07/20 11:03:40;;;;;;;5.50;1.50;;;38.00;21.10;;;;;;5050442;28;20437;-53
2022/07/20 11:06:18;;;;;;;9.87;2.43;;;37.70;20.60;;;;;;5048763;28;20069;-53
2022/07/20 11:08:57;;;;;;;6.27;2.40;;;36.90;19.90;;;;;;5052527;28;20427;-53
2022/07/20 11:11:25;;;;;;;3.25;1.67;;;35.10;22.20;;;;;;5052021;28;20457;-53
2022/07/20 11:13:52;;;;;;;16.35;4.22;;;34.80;22.30;;;;;;5046193;28;20493;-53
2022/07/20 11:16:20;;;;;;;9.32;1.80;;;36.20;23.30;;;;;;5045516;28;20036;-53
2022/07/20 11:18:48;;;;;;;9.32;3.00;;;37.10;22.60;;;;;;5043905;28;20036;-53
2022/07/20 11:21:14;;;;;;;19.95;3.40;;;36.40;20.30;;;;;;5045493;28;20025;-53
2022/07/20 11:23:46;;;;;;;10.20;2.58;;;36.90;21.20;;;;;;5048985;28;20037;-53
2022/07/20 11:26:14;;;;;;;9.45;1.92;;;37.30;20.90;;;;;;5046272;28;20033;-53
2022/07/20 11:28:46;;;;;;;6.25;1.65;;;37.60;20.90;;;;;;5044523;28;20036;-53
2022/07/20 11:31:13;;;;;;;5.63;2.33;;;37.60;20.40;;;;;;5043508;28;20021;-53
2022/07/20 11:33:44;;;;;;;2.90;2.00;;;37.10;21.50;;;;;;5043576;28;20030;-53
2022/07/20 11:36:15;;;;;;;3.78;1.75;;;37.10;21.50;;;;;;5050413;28;20061;-53
2022/07/20 11:38:47;;;;;;;13.52;2.92;;;37.30;20.90;;;;;;5040335;28;20075;-53
2022/07/20 11:41:18;;;;;;;6.70;1.75;;;37.20;20.30;;;;;;5026436;28;20034;-53
2022/07/20 11:43:45;;;;;;;10.02;2.40;;;36.20;21.70;;;;;;5046985;28;20107;-53
2022/07/20 11:46:22;;;;;;;6.93;2.03;;;37.40;22.20;;;;;;5044340;28;20037;-53
2022/07/20 11:48:59;;;;;;;3.15;1.90;;;38.00;21.30;;;;;;5043002;28;20037;-53
2022/07/20 11:51:29;;;;;;;4.65;1.38;;;38.10;21.00;;;;;;5050141;28;20037;-53
2022/07/20 11:53:55;;;;;;;4.63;1.75;;;38.80;20.60;;;;;;5050462;28;20116;-53
2022/07/20 11:56:25;;;;;;;6.53;2.28;;;39.10;20.60;;;;;;5044895;28;20037;-53
2022/07/20 11:58:54;;;;;;;9.05;2.60;;;38.00;19.00;;;;;;5051603;28;20025;-53
2022/07/20 12:01:24;;;;;;;15.20;2.95;;;37.90;19.40;;;;;;5052381;28;20318;-53
2022/07/20 12:04:01;;;;;;;13.13;2.10;;;38.10;20.50;;;;;;5043972;28;20621;-53
2022/07/20 12:06:30;;;;;;;8.18;2.40;;;37.90;19.20;;;;;;5037540;28;20817;-53
2022/07/20 12:09:17;;;;;;;7.35;2.13;;;37.30;20.40;;;;;;5040681;28;20029;-53
2022/07/20 12:12:07;;;;;;;3.15;1.45;;;38.30;20.70;;;;;;5052954;28;20093;-53
2022/07/20 12:14:36;;;;;;;11.60;3.80;;;37.50;19.60;;;;;;5050422;28;20067;-53
2022/07/20 12:17:12;;;;;;;34.17;3.87;;;38.20;20.40;;;;;;5044805;28;20136;-53
2022/07/20 12:19:43;;;;;;;6.90;2.60;;;36.30;19.80;;;;;;5048007;28;20111;-52
2022/07/20 12:22:23;;;;;;;6.57;2.05;;;37.00;20.70;;;;;;5051471;28;20485;-53
2022/07/20 12:24:53;;;;;;;6.93;1.50;;;38.00;21.60;;;;;;5051867;28;20112;-53
2022/07/20 12:27:19;;;;;;;12.32;3.10;;;38.50;20.80;;;;;;5050862;28;20021;-52
2022/07/20 12:29:49;;;;;;;4.95;2.92;;;38.90;20.50;;;;;;5050948;28;20111;-53
2022/07/20 12:32:16;;;;;;;8.60;2.10;;;38.70;20.00;;;;;;5054376;28;20140;-53
2022/07/20 12:34:53;;;;;;;7.63;2.50;;;39.20;20.60;;;;;;5048232;28;20078;-53
2022/07/20 12:37:21;;;;;;;7.05;2.00;;;39.10;19.50;;;;;;5055950;28;20031;-53
2022/07/20 12:39:53;;;;;;;4.38;2.10;;;39.30;20.40;;;;;;5054965;28;20029;-53
2022/07/20 12:42:26;;;;;;;12.10;2.97;;;39.50;20.30;;;;;;5051104;28;20064;-53
2022/07/20 12:45:07;;;;;;;15.18;2.38;;;39.20;18.80;;;;;;5040713;28;20033;-53
2022/07/20 12:47:33;;;;;;;5.03;1.90;;;38.40;19.70;;;;;;5052398;28;20111;-53
2022/07/20 12:49:59;;;;;;;3.25;1.55;;;37.60;19.90;;;;;;5051404;28;20121;-53
2022/07/20 12:52:32;;;;;;;12.30;3.28;;;38.40;20.80;;;;;;5054843;28;20534;-53